Alloy, West Virginia
Current Conditions -  °F | °C
As of 9:54 PM on Saturday 25 Oct 2014 (Local Time) from KCRW Reporting Station
Clear Clear  
Wind Chill: 60°   Ceiling: Unl
Heat Index: 60°   Visibility: 10mi
Dew Point: 50°   Wind: 9mph
Humidity: 69%   Direction: 240°WSW
Pressure: 29.9"   Gusts: NA
Location:  38.14°N, 81.27°W
Report Text: KCRW 260154Z 24008KT 10SM CLR 16/10 A2990 RMK AO2 SLP123 T01560100 $
Loading
Personal Weather Stations






























Interactive Weather Map
Tropical Storm Tracking
New forecast layout! Learn more

10-Day Weather Forecast

Advertisements
Track Severe Weather on mobile